Aviation Digital Data Service (ADDS)

Output produced by METARs form (0009 UTC 23 March 2019)
found at http://www.aviationweather.gov/metar/data/
 
METAR text: RJTC 222344Z 04006KT 350V070 9999 -RA FEW020 BKN040 BKN150 06/M06 Q1013 RMK 1CU020 6SC040 7AC150 A2991
Conditions at: RJTC (TACHIKAWA (JASDF, JP) observed 2344 UTC 22 March 2019
Temperature: 6.0°C (43°F)
Dewpoint: -6.0°C (21°F) [RH = 42%]
Pressure (altimeter): 29.91 inches Hg (1013.0 mb)
Winds: from the NE (40 degrees) at 7 MPH (6 knots; 3.1 m/s)
Visibility: 6 or more miles (10+ km)
Ceiling: 4000 feet AGL
Clouds: few clouds at 2000 feet AGL
broken clouds at 4000 feet AGL
broken clouds at 15000 feet AGL
Weather: -RA  (light rain)

METAR text: RJTC 222234Z 02010KT 350V050 9999 -RA FEW030 BKN050 07/M08 Q1013 RMK 1CU030 7SC050 A2991
Conditions at: RJTC (TACHIKAWA (JASDF, JP) observed 2234 UTC 22 March 2019
Temperature: 7.0°C (45°F)
Dewpoint: -8.0°C (18°F) [RH = 33%]
Pressure (altimeter): 29.91 inches Hg (1013.0 mb)
Winds: from the NNE (20 degrees) at 12 MPH (10 knots; 5.1 m/s)
Visibility: 6 or more miles (10+ km)
Ceiling: 5000 feet AGL
Clouds: few clouds at 3000 feet AGL
broken clouds at 5000 feet AGL
Weather: -RA  (light rain)

METAR text: RJTC 220539Z 02012KT 350V060 9999 FEW030 BKN070 BKN230 18/M01 Q1001 RMK 2CU030 5AC070 6CI230 A2958
Conditions at: RJTC (TACHIKAWA (JASDF, JP) observed 0539 UTC 22 March 2019
Temperature: 18.0°C (64°F)
Dewpoint: -1.0°C (30°F) [RH = 28%]
Pressure (altimeter): 29.56 inches Hg (1001.0 mb)
Winds: from the NNE (20 degrees) at 14 MPH (12 knots; 6.2 m/s)
Visibility: 6 or more miles (10+ km)
Ceiling: 7000 feet AGL
Clouds: few clouds at 3000 feet AGL
broken clouds at 7000 feet AGL
broken clouds at 23000 feet AGL
Weather: no significant weather observed at this time

METAR text: RJTC 212340Z 01015G25KT 9999 FEW040 SCT230 18/05 Q1001 RMK 1CU040 3CI230 A2957
Conditions at: RJTC (TACHIKAWA (JASDF, JP) observed 2340 UTC 21 March 2019
Temperature: 18.0°C (64°F)
Dewpoint: 5.0°C (41°F) [RH = 42%]
Pressure (altimeter): 29.56 inches Hg (1001.0 mb)
Winds: from the N (10 degrees) at 17 MPH (15 knots; 7.7 m/s)
gusting to 29 MPH (25 knots; 12.9 m/s)
Visibility: 6 or more miles (10+ km)
Ceiling: at least 12,000 feet AGL
Clouds: few clouds at 4000 feet AGL
scattered clouds at 23000 feet AGL
Weather: no significant weather observed at this time